sensor_id;sensor_type;location;lat;lon;timestamp;P1;durP1;ratioP1;P2;durP2;ratioP2
10461;SDS011;5278;42.656;23.374;2023-02-22T00:00:34;12.60;;;8.40;;
10461;SDS011;5278;42.656;23.374;2023-02-22T00:03:08;16.73;;;8.37;;
10461;SDS011;5278;42.656;23.374;2023-02-22T00:05:36;15.57;;;8.60;;
10461;SDS011;5278;42.656;23.374;2023-02-22T00:08:05;14.20;;;7.97;;
10461;SDS011;5278;42.656;23.374;2023-02-22T00:10:34;13.07;;;8.07;;
10461;SDS011;5278;42.656;23.374;2023-02-22T00:13:07;11.13;;;7.63;;
10461;SDS011;5278;42.656;23.374;2023-02-22T00:15:36;9.63;;;6.70;;
10461;SDS011;5278;42.656;23.374;2023-02-22T00:18:05;12.90;;;7.87;;
10461;SDS011;5278;42.656;23.374;2023-02-22T00:20:35;18.33;;;7.50;;
10461;SDS011;5278;42.656;23.374;2023-02-22T00:23:03;9.70;;;6.40;;
10461;SDS011;5278;42.656;23.374;2023-02-22T00:25:32;12.83;;;7.60;;
10461;SDS011;5278;42.656;23.374;2023-02-22T00:28:00;11.60;;;7.03;;
10461;SDS011;5278;42.656;23.374;2023-02-22T00:30:29;9.30;;;6.90;;
10461;SDS011;5278;42.656;23.374;2023-02-22T00:32:59;9.37;;;6.20;;
10461;SDS011;5278;42.656;23.374;2023-02-22T00:35:28;8.53;;;6.67;;
10461;SDS011;5278;42.656;23.374;2023-02-22T00:37:57;10.77;;;6.90;;
10461;SDS011;5278;42.656;23.374;2023-02-22T00:40:28;9.17;;;6.10;;
10461;SDS011;5278;42.656;23.374;2023-02-22T00:42:57;9.70;;;5.97;;
10461;SDS011;5278;42.656;23.374;2023-02-22T00:45:25;8.13;;;6.33;;
10461;SDS011;5278;42.656;23.374;2023-02-22T00:47:53;8.47;;;5.90;;
10461;SDS011;5278;42.656;23.374;2023-02-22T00:50:23;9.57;;;6.50;;
10461;SDS011;5278;42.656;23.374;2023-02-22T00:52:51;9.67;;;6.17;;
10461;SDS011;5278;42.656;23.374;2023-02-22T00:55:22;10.50;;;7.13;;
10461;SDS011;5278;42.656;23.374;2023-02-22T00:57:49;7.60;;;5.80;;
10461;SDS011;5278;42.656;23.374;2023-02-22T01:00:17;9.50;;;6.17;;
10461;SDS011;5278;42.656;23.374;2023-02-22T01:02:46;7.57;;;5.67;;
10461;SDS011;5278;42.656;23.374;2023-02-22T01:05:15;7.83;;;6.27;;
10461;SDS011;5278;42.656;23.374;2023-02-22T01:07:44;7.67;;;5.97;;
10461;SDS011;5278;42.656;23.374;2023-02-22T01:10:12;11.37;;;6.60;;
10461;SDS011;5278;42.656;23.374;2023-02-22T01:12:39;8.97;;;6.53;;
10461;SDS011;5278;42.656;23.374;2023-02-22T01:15:07;11.90;;;7.43;;
10461;SDS011;5278;42.656;23.374;2023-02-22T01:17:36;9.17;;;6.60;;
10461;SDS011;5278;42.656;23.374;2023-02-22T01:20:04;9.67;;;6.37;;
10461;SDS011;5278;42.656;23.374;2023-02-22T01:22:37;8.63;;;6.33;;
10461;SDS011;5278;42.656;23.374;2023-02-22T01:25:06;10.97;;;6.73;;
10461;SDS011;5278;42.656;23.374;2023-02-22T01:27:34;8.87;;;6.07;;
10461;SDS011;5278;42.656;23.374;2023-02-22T01:30:01;9.53;;;6.47;;
10461;SDS011;5278;42.656;23.374;2023-02-22T01:32:32;8.37;;;5.87;;
10461;SDS011;5278;42.656;23.374;2023-02-22T01:35:00;10.77;;;5.73;;
10461;SDS011;5278;42.656;23.374;2023-02-22T01:37:29;8.00;;;5.37;;
10461;SDS011;5278;42.656;23.374;2023-02-22T01:39:56;9.07;;;5.70;;
10461;SDS011;5278;42.656;23.374;2023-02-22T01:42:24;8.30;;;6.50;;
10461;SDS011;5278;42.656;23.374;2023-02-22T01:48:05;8.73;;;5.23;;
10461;SDS011;5278;42.656;23.374;2023-02-22T01:50:36;8.30;;;5.70;;
10461;SDS011;5278;42.656;23.374;2023-02-22T01:53:04;7.97;;;6.73;;
10461;SDS011;5278;42.656;23.374;2023-02-22T01:55:34;9.10;;;6.20;;
10461;SDS011;5278;42.656;23.374;2023-02-22T01:58:05;7.73;;;6.43;;
10461;SDS011;5278;42.656;23.374;2023-02-22T02:00:34;9.27;;;6.50;;
10461;SDS011;5278;42.656;23.374;2023-02-22T02:03:04;9.50;;;5.77;;
10461;SDS011;5278;42.656;23.374;2023-02-22T02:05:37;11.23;;;7.07;;
10461;SDS011;5278;42.656;23.374;2023-02-22T02:08:10;8.80;;;6.73;;
10461;SDS011;5278;42.656;23.374;2023-02-22T02:10:44;11.17;;;7.20;;
10461;SDS011;5278;42.656;23.374;2023-02-22T02:13:14;9.10;;;6.17;;
10461;SDS011;5278;42.656;23.374;2023-02-22T02:15:41;9.10;;;6.23;;
10461;SDS011;5278;42.656;23.374;2023-02-22T02:18:09;10.03;;;6.43;;
10461;SDS011;5278;42.656;23.374;2023-02-22T02:20:42;8.50;;;6.40;;
10461;SDS011;5278;42.656;23.374;2023-02-22T02:23:28;9.00;;;6.10;;
10461;SDS011;5278;42.656;23.374;2023-02-22T02:29:34;11.17;;;6.87;;
10461;SDS011;5278;42.656;23.374;2023-02-22T02:35:06;10.83;;;6.63;;
10461;SDS011;5278;42.656;23.374;2023-02-22T02:37:40;11.20;;;5.90;;
10461;SDS011;5278;42.656;23.374;2023-02-22T02:40:16;9.40;;;5.57;;
10461;SDS011;5278;42.656;23.374;2023-02-22T02:42:50;10.80;;;6.13;;
10461;SDS011;5278;42.656;23.374;2023-02-22T02:45:37;9.27;;;5.97;;
10461;SDS011;5278;42.656;23.374;2023-02-22T02:48:13;9.47;;;5.87;;
10461;SDS011;5278;42.656;23.374;2023-02-22T02:50:43;7.83;;;6.17;;
10461;SDS011;5278;42.656;23.374;2023-02-22T02:53:14;7.80;;;5.87;;
10461;SDS011;5278;42.656;23.374;2023-02-22T02:55:45;10.37;;;5.77;;
10461;SDS011;5278;42.656;23.374;2023-02-22T02:58:15;9.13;;;5.83;;
10461;SDS011;5278;42.656;23.374;2023-02-22T03:00:44;10.07;;;6.07;;
10461;SDS011;5278;42.656;23.374;2023-02-22T03:03:21;7.47;;;5.07;;
10461;SDS011;5278;42.656;23.374;2023-02-22T03:06:14;11.10;;;5.37;;
10461;SDS011;5278;42.656;23.374;2023-02-22T03:08:53;7.40;;;4.53;;
10461;SDS011;5278;42.656;23.374;2023-02-22T03:11:26;5.60;;;4.53;;
10461;SDS011;5278;42.656;23.374;2023-02-22T03:13:57;5.27;;;4.20;;
10461;SDS011;5278;42.656;23.374;2023-02-22T03:16:30;6.73;;;5.03;;
10461;SDS011;5278;42.656;23.374;2023-02-22T03:19:06;5.87;;;3.93;;
10461;SDS011;5278;42.656;23.374;2023-02-22T03:21:39;10.70;;;4.80;;
10461;SDS011;5278;42.656;23.374;2023-02-22T03:24:13;6.00;;;4.33;;
10461;SDS011;5278;42.656;23.374;2023-02-22T03:26:48;6.87;;;4.40;;
10461;SDS011;5278;42.656;23.374;2023-02-22T03:29:19;5.10;;;4.00;;
10461;SDS011;5278;42.656;23.374;2023-02-22T03:31:51;6.37;;;4.50;;
10461;SDS011;5278;42.656;23.374;2023-02-22T03:34:28;5.33;;;3.50;;
10461;SDS011;5278;42.656;23.374;2023-02-22T03:37:01;5.73;;;4.43;;
10461;SDS011;5278;42.656;23.374;2023-02-22T03:39:33;6.03;;;3.87;;
10461;SDS011;5278;42.656;23.374;2023-02-22T03:42:04;4.30;;;3.67;;
10461;SDS011;5278;42.656;23.374;2023-02-22T03:44:36;5.60;;;3.83;;
10461;SDS011;5278;42.656;23.374;2023-02-22T03:47:06;5.03;;;3.93;;
10461;SDS011;5278;42.656;23.374;2023-02-22T03:49:41;6.83;;;4.37;;
10461;SDS011;5278;42.656;23.374;2023-02-22T03:52:12;8.40;;;4.40;;
10461;SDS011;5278;42.656;23.374;2023-02-22T03:54:39;6.10;;;4.23;;
10461;SDS011;5278;42.656;23.374;2023-02-22T03:57:08;4.73;;;3.40;;
10461;SDS011;5278;42.656;23.374;2023-02-22T03:59:39;8.83;;;4.10;;
10461;SDS011;5278;42.656;23.374;2023-02-22T04:02:07;5.73;;;3.90;;
10461;SDS011;5278;42.656;23.374;2023-02-22T04:04:34;5.50;;;3.47;;
10461;SDS011;5278;42.656;23.374;2023-02-22T04:07:02;5.67;;;3.40;;
10461;SDS011;5278;42.656;23.374;2023-02-22T04:09:29;8.23;;;4.40;;
10461;SDS011;5278;42.656;23.374;2023-02-22T04:11:56;5.73;;;4.27;;
10461;SDS011;5278;42.656;23.374;2023-02-22T04:14:25;7.30;;;4.27;;
10461;SDS011;5278;42.656;23.374;2023-02-22T04:16:51;7.23;;;4.00;;
10461;SDS011;5278;42.656;23.374;2023-02-22T04:19:18;7.43;;;4.83;;
10461;SDS011;5278;42.656;23.374;2023-02-22T04:21:45;6.97;;;5.20;;
10461;SDS011;5278;42.656;23.374;2023-02-22T04:24:13;7.03;;;4.67;;
10461;SDS011;5278;42.656;23.374;2023-02-22T04:26:40;9.70;;;4.83;;
10461;SDS011;5278;42.656;23.374;2023-02-22T04:29:07;7.97;;;4.23;;
10461;SDS011;5278;42.656;23.374;2023-02-22T04:31:34;11.40;;;5.50;;
10461;SDS011;5278;42.656;23.374;2023-02-22T04:34:01;10.27;;;5.13;;
10461;SDS011;5278;42.656;23.374;2023-02-22T04:36:28;13.20;;;5.33;;
10461;SDS011;5278;42.656;23.374;2023-02-22T04:38:56;8.67;;;4.83;;
10461;SDS011;5278;42.656;23.374;2023-02-22T04:41:25;6.80;;;4.67;;
10461;SDS011;5278;42.656;23.374;2023-02-22T04:43:52;9.93;;;4.40;;
10461;SDS011;5278;42.656;23.374;2023-02-22T04:46:19;9.57;;;5.57;;
10461;SDS011;5278;42.656;23.374;2023-02-22T04:48:46;14.37;;;7.00;;
10461;SDS011;5278;42.656;23.374;2023-02-22T04:51:13;11.87;;;7.17;;
10461;SDS011;5278;42.656;23.374;2023-02-22T04:53:41;10.07;;;7.60;;
10461;SDS011;5278;42.656;23.374;2023-02-22T04:56:08;12.20;;;6.97;;
10461;SDS011;5278;42.656;23.374;2023-02-22T04:58:37;12.27;;;6.27;;
10461;SDS011;5278;42.656;23.374;2023-02-22T05:01:04;8.33;;;3.70;;
10461;SDS011;5278;42.656;23.374;2023-02-22T05:03:32;10.27;;;6.20;;
10461;SDS011;5278;42.656;23.374;2023-02-22T05:05:59;14.43;;;7.97;;
10461;SDS011;5278;42.656;23.374;2023-02-22T05:08:26;14.03;;;7.70;;
10461;SDS011;5278;42.656;23.374;2023-02-22T05:10:53;10.63;;;6.53;;
10461;SDS011;5278;42.656;23.374;2023-02-22T05:13:20;13.63;;;7.07;;
10461;SDS011;5278;42.656;23.374;2023-02-22T05:15:49;11.13;;;6.93;;
10461;SDS011;5278;42.656;23.374;2023-02-22T05:18:16;11.30;;;7.10;;
10461;SDS011;5278;42.656;23.374;2023-02-22T05:20:43;10.93;;;7.90;;
10461;SDS011;5278;42.656;23.374;2023-02-22T05:23:09;14.67;;;7.63;;
10461;SDS011;5278;42.656;23.374;2023-02-22T05:25:36;11.23;;;6.90;;
10461;SDS011;5278;42.656;23.374;2023-02-22T05:28:06;16.73;;;9.00;;
10461;SDS011;5278;42.656;23.374;2023-02-22T05:30:36;15.43;;;8.23;;
10461;SDS011;5278;42.656;23.374;2023-02-22T05:33:06;14.10;;;8.00;;
10461;SDS011;5278;42.656;23.374;2023-02-22T05:35:33;13.87;;;8.47;;
10461;SDS011;5278;42.656;23.374;2023-02-22T05:38:01;16.17;;;9.53;;
10461;SDS011;5278;42.656;23.374;2023-02-22T05:40:29;15.40;;;8.83;;
10461;SDS011;5278;42.656;23.374;2023-02-22T05:42:56;14.53;;;8.87;;
10461;SDS011;5278;42.656;23.374;2023-02-22T05:45:25;17.63;;;9.07;;
10461;SDS011;5278;42.656;23.374;2023-02-22T05:47:53;16.70;;;8.90;;
10461;SDS011;5278;42.656;23.374;2023-02-22T05:50:23;15.17;;;9.50;;
10461;SDS011;5278;42.656;23.374;2023-02-22T05:52:51;16.70;;;8.73;;
10461;SDS011;5278;42.656;23.374;2023-02-22T05:55:19;15.83;;;9.70;;
10461;SDS011;5278;42.656;23.374;2023-02-22T05:57:48;13.30;;;8.77;;
10461;SDS011;5278;42.656;23.374;2023-02-22T06:00:18;18.83;;;10.80;;
10461;SDS011;5278;42.656;23.374;2023-02-22T06:02:52;18.67;;;9.90;;
10461;SDS011;5278;42.656;23.374;2023-02-22T06:05:20;6.87;;;4.77;;
10461;SDS011;5278;42.656;23.374;2023-02-22T06:07:48;5.60;;;3.97;;
10461;SDS011;5278;42.656;23.374;2023-02-22T06:10:16;12.20;;;5.20;;
10461;SDS011;5278;42.656;23.374;2023-02-22T06:12:44;7.60;;;4.20;;
10461;SDS011;5278;42.656;23.374;2023-02-22T06:15:11;8.13;;;4.10;;
10461;SDS011;5278;42.656;23.374;2023-02-22T06:17:38;6.27;;;3.67;;
10461;SDS011;5278;42.656;23.374;2023-02-22T06:20:06;8.60;;;3.90;;
10461;SDS011;5278;42.656;23.374;2023-02-22T06:22:34;5.17;;;3.50;;
10461;SDS011;5278;42.656;23.374;2023-02-22T06:25:04;14.03;;;6.93;;
10461;SDS011;5278;42.656;23.374;2023-02-22T06:27:32;8.10;;;5.13;;
10461;SDS011;5278;42.656;23.374;2023-02-22T06:30:01;8.07;;;4.17;;
10461;SDS011;5278;42.656;23.374;2023-02-22T06:32:28;9.57;;;5.77;;
10461;SDS011;5278;42.656;23.374;2023-02-22T06:34:55;7.50;;;5.07;;
10461;SDS011;5278;42.656;23.374;2023-02-22T06:37:22;7.83;;;5.63;;
10461;SDS011;5278;42.656;23.374;2023-02-22T06:39:50;14.13;;;5.80;;
10461;SDS011;5278;42.656;23.374;2023-02-22T06:42:19;7.07;;;5.50;;
10461;SDS011;5278;42.656;23.374;2023-02-22T06:44:47;6.87;;;4.60;;
10461;SDS011;5278;42.656;23.374;2023-02-22T06:47:14;6.30;;;5.10;;
10461;SDS011;5278;42.656;23.374;2023-02-22T06:49:41;15.27;;;6.83;;
10461;SDS011;5278;42.656;23.374;2023-02-22T06:52:08;12.20;;;6.37;;
10461;SDS011;5278;42.656;23.374;2023-02-22T06:54:37;11.20;;;6.90;;
10461;SDS011;5278;42.656;23.374;2023-02-22T06:57:04;13.97;;;7.87;;
10461;SDS011;5278;42.656;23.374;2023-02-22T06:59:34;12.13;;;7.13;;
10461;SDS011;5278;42.656;23.374;2023-02-22T07:02:01;13.00;;;7.90;;
10461;SDS011;5278;42.656;23.374;2023-02-22T07:04:31;15.27;;;7.60;;
10461;SDS011;5278;42.656;23.374;2023-02-22T07:06:58;11.67;;;7.60;;
10461;SDS011;5278;42.656;23.374;2023-02-22T07:09:25;11.13;;;7.30;;
10461;SDS011;5278;42.656;23.374;2023-02-22T07:11:52;12.57;;;7.70;;
10461;SDS011;5278;42.656;23.374;2023-02-22T07:14:20;12.23;;;8.30;;
10461;SDS011;5278;42.656;23.374;2023-02-22T07:16:49;14.60;;;7.80;;
10461;SDS011;5278;42.656;23.374;2023-02-22T07:19:16;13.80;;;7.67;;
10461;SDS011;5278;42.656;23.374;2023-02-22T07:21:43;9.87;;;7.20;;
10461;SDS011;5278;42.656;23.374;2023-02-22T07:24:12;16.07;;;8.47;;
10461;SDS011;5278;42.656;23.374;2023-02-22T07:26:39;15.47;;;7.47;;
10461;SDS011;5278;42.656;23.374;2023-02-22T07:29:07;11.10;;;7.80;;
10461;SDS011;5278;42.656;23.374;2023-02-22T07:31:35;16.60;;;9.20;;
10461;SDS011;5278;42.656;23.374;2023-02-22T07:34:06;24.80;;;10.10;;
10461;SDS011;5278;42.656;23.374;2023-02-22T07:36:33;13.83;;;6.93;;
10461;SDS011;5278;42.656;23.374;2023-02-22T07:39:01;7.93;;;5.30;;
10461;SDS011;5278;42.656;23.374;2023-02-22T07:41:28;8.57;;;5.87;;
10461;SDS011;5278;42.656;23.374;2023-02-22T07:43:54;10.73;;;6.70;;
10461;SDS011;5278;42.656;23.374;2023-02-22T07:46:22;10.33;;;7.00;;
10461;SDS011;5278;42.656;23.374;2023-02-22T07:48:49;9.47;;;7.00;;
10461;SDS011;5278;42.656;23.374;2023-02-22T07:51:17;10.93;;;7.17;;
10461;SDS011;5278;42.656;23.374;2023-02-22T07:53:44;11.40;;;7.13;;
10461;SDS011;5278;42.656;23.374;2023-02-22T07:56:12;16.47;;;7.30;;
10461;SDS011;5278;42.656;23.374;2023-02-22T07:58:39;25.50;;;8.20;;
10461;SDS011;5278;42.656;23.374;2023-02-22T08:01:06;14.03;;;7.77;;
10461;SDS011;5278;42.656;23.374;2023-02-22T08:03:33;11.47;;;7.83;;
10461;SDS011;5278;42.656;23.374;2023-02-22T08:06:02;17.17;;;7.60;;
10461;SDS011;5278;42.656;23.374;2023-02-22T08:08:32;10.20;;;7.57;;
10461;SDS011;5278;42.656;23.374;2023-02-22T08:11:00;10.00;;;7.93;;
10461;SDS011;5278;42.656;23.374;2023-02-22T08:13:28;12.67;;;8.20;;
10461;SDS011;5278;42.656;23.374;2023-02-22T08:15:55;18.73;;;8.57;;
10461;SDS011;5278;42.656;23.374;2023-02-22T08:18:22;13.13;;;8.53;;
10461;SDS011;5278;42.656;23.374;2023-02-22T08:20:50;18.43;;;8.83;;
10461;SDS011;5278;42.656;23.374;2023-02-22T08:23:20;13.17;;;8.60;;
10461;SDS011;5278;42.656;23.374;2023-02-22T08:25:50;10.50;;;8.00;;
10461;SDS011;5278;42.656;23.374;2023-02-22T08:28:18;11.30;;;8.30;;
10461;SDS011;5278;42.656;23.374;2023-02-22T08:30:47;15.00;;;9.18;;
10461;SDS011;5278;42.656;23.374;2023-02-22T08:33:14;15.23;;;9.35;;
10461;SDS011;5278;42.656;23.374;2023-02-22T08:35:43;13.77;;;8.98;;
10461;SDS011;5278;42.656;23.374;2023-02-22T08:38:16;16.35;;;10.15;;
10461;SDS011;5278;42.656;23.374;2023-02-22T08:40:46;13.63;;;9.77;;
10461;SDS011;5278;42.656;23.374;2023-02-22T08:43:15;14.73;;;10.07;;
10461;SDS011;5278;42.656;23.374;2023-02-22T08:45:43;22.83;;;12.88;;
10461;SDS011;5278;42.656;23.374;2023-02-22T08:48:10;26.52;;;13.05;;
10461;SDS011;5278;42.656;23.374;2023-02-22T08:50:38;26.63;;;12.32;;
10461;SDS011;5278;42.656;23.374;2023-02-22T08:53:06;16.48;;;12.77;;
10461;SDS011;5278;42.656;23.374;2023-02-22T08:55:34;19.58;;;14.57;;
10461;SDS011;5278;42.656;23.374;2023-02-22T08:58:03;23.73;;;16.65;;
10461;SDS011;5278;42.656;23.374;2023-02-22T09:00:35;23.38;;;14.93;;
10461;SDS011;5278;42.656;23.374;2023-02-22T09:03:03;24.98;;;16.73;;
10461;SDS011;5278;42.656;23.374;2023-02-22T09:05:31;18.73;;;15.02;;
10461;SDS011;5278;42.656;23.374;2023-02-22T09:07:58;18.92;;;13.30;;
10461;SDS011;5278;42.656;23.374;2023-02-22T09:10:29;19.02;;;12.70;;
10461;SDS011;5278;42.656;23.374;2023-02-22T09:12:59;11.65;;;10.18;;
10461;SDS011;5278;42.656;23.374;2023-02-22T09:15:28;8.80;;;6.75;;
10461;SDS011;5278;42.656;23.374;2023-02-22T09:17:57;13.82;;;7.00;;
10461;SDS011;5278;42.656;23.374;2023-02-22T09:20:24;9.25;;;6.32;;
10461;SDS011;5278;42.656;23.374;2023-02-22T09:22:52;9.75;;;6.47;;
10461;SDS011;5278;42.656;23.374;2023-02-22T09:25:21;10.25;;;5.97;;
10461;SDS011;5278;42.656;23.374;2023-02-22T09:27:49;6.28;;;5.15;;
10461;SDS011;5278;42.656;23.374;2023-02-22T09:30:20;11.20;;;9.43;;
10461;SDS011;5278;42.656;23.374;2023-02-22T09:32:49;5.82;;;4.75;;
10461;SDS011;5278;42.656;23.374;2023-02-22T09:35:22;6.57;;;5.10;;
10461;SDS011;5278;42.656;23.374;2023-02-22T09:37:51;8.55;;;7.65;;
10461;SDS011;5278;42.656;23.374;2023-02-22T09:40:22;7.93;;;5.55;;
10461;SDS011;5278;42.656;23.374;2023-02-22T09:43:02;10.90;;;6.10;;
10461;SDS011;5278;42.656;23.374;2023-02-22T09:45:36;7.55;;;5.65;;
10461;SDS011;5278;42.656;23.374;2023-02-22T09:48:09;7.95;;;5.32;;
10461;SDS011;5278;42.656;23.374;2023-02-22T09:50:42;16.95;;;5.13;;
10461;SDS011;5278;42.656;23.374;2023-02-22T09:53:16;4.93;;;4.38;;
10461;SDS011;5278;42.656;23.374;2023-02-22T09:55:54;6.10;;;4.88;;
10461;SDS011;5278;42.656;23.374;2023-02-22T09:58:25;6.35;;;3.85;;
10461;SDS011;5278;42.656;23.374;2023-02-22T10:01:01;4.68;;;3.53;;
10461;SDS011;5278;42.656;23.374;2023-02-22T10:03:44;5.68;;;4.20;;
10461;SDS011;5278;42.656;23.374;2023-02-22T10:06:19;6.10;;;3.75;;
10461;SDS011;5278;42.656;23.374;2023-02-22T10:08:47;5.25;;;3.95;;
10461;SDS011;5278;42.656;23.374;2023-02-22T10:11:20;3.60;;;3.30;;
10461;SDS011;5278;42.656;23.374;2023-02-22T10:14:03;4.53;;;3.65;;
10461;SDS011;5278;42.656;23.374;2023-02-22T10:16:51;6.78;;;4.45;;
10461;SDS011;5278;42.656;23.374;2023-02-22T10:19:26;9.15;;;4.57;;
10461;SDS011;5278;42.656;23.374;2023-02-22T10:22:09;7.55;;;3.78;;
10461;SDS011;5278;42.656;23.374;2023-02-22T10:24:58;5.22;;;3.47;;
10461;SDS011;5278;42.656;23.374;2023-02-22T10:27:30;4.45;;;3.70;;
10461;SDS011;5278;42.656;23.374;2023-02-22T10:30:00;7.03;;;5.13;;
10461;SDS011;5278;42.656;23.374;2023-02-22T10:32:33;5.90;;;4.33;;
10461;SDS011;5278;42.656;23.374;2023-02-22T10:35:15;4.50;;;3.70;;
10461;SDS011;5278;42.656;23.374;2023-02-22T10:38:01;6.00;;;3.95;;
10461;SDS011;5278;42.656;23.374;2023-02-22T10:40:39;4.90;;;3.58;;
10461;SDS011;5278;42.656;23.374;2023-02-22T10:43:09;9.98;;;4.00;;
10461;SDS011;5278;42.656;23.374;2023-02-22T10:45:36;3.55;;;3.25;;
10461;SDS011;5278;42.656;23.374;2023-02-22T10:48:05;3.17;;;2.88;;
10461;SDS011;5278;42.656;23.374;2023-02-22T10:50:36;5.20;;;3.90;;
10461;SDS011;5278;42.656;23.374;2023-02-22T10:53:06;6.45;;;4.25;;
10461;SDS011;5278;42.656;23.374;2023-02-22T10:55:34;5.43;;;3.92;;
10461;SDS011;5278;42.656;23.374;2023-02-22T10:58:04;11.25;;;7.43;;
10461;SDS011;5278;42.656;23.374;2023-02-22T11:00:33;5.30;;;4.13;;
10461;SDS011;5278;42.656;23.374;2023-02-22T11:03:13;4.25;;;3.70;;
10461;SDS011;5278;42.656;23.374;2023-02-22T11:05:44;6.63;;;4.13;;
10461;SDS011;5278;42.656;23.374;2023-02-22T11:08:21;7.95;;;4.65;;
10461;SDS011;5278;42.656;23.374;2023-02-22T11:10:53;7.05;;;4.47;;
10461;SDS011;5278;42.656;23.374;2023-02-22T11:13:23;6.00;;;4.10;;
10461;SDS011;5278;42.656;23.374;2023-02-22T11:15:52;6.00;;;4.05;;
10461;SDS011;5278;42.656;23.374;2023-02-22T11:18:23;5.97;;;3.53;;
10461;SDS011;5278;42.656;23.374;2023-02-22T11:20:59;5.10;;;3.83;;
10461;SDS011;5278;42.656;23.374;2023-02-22T11:23:32;3.70;;;3.40;;
10461;SDS011;5278;42.656;23.374;2023-02-22T11:26:04;4.47;;;3.63;;
10461;SDS011;5278;42.656;23.374;2023-02-22T11:28:34;4.68;;;3.70;;
10461;SDS011;5278;42.656;23.374;2023-02-22T11:31:09;3.20;;;2.92;;
10461;SDS011;5278;42.656;23.374;2023-02-22T11:33:45;4.55;;;3.38;;
10461;SDS011;5278;42.656;23.374;2023-02-22T11:36:28;5.10;;;3.20;;
10461;SDS011;5278;42.656;23.374;2023-02-22T11:38:59;6.55;;;4.05;;
10461;SDS011;5278;42.656;23.374;2023-02-22T11:41:30;6.25;;;3.38;;
10461;SDS011;5278;42.656;23.374;2023-02-22T11:44:13;5.03;;;3.42;;
10461;SDS011;5278;42.656;23.374;2023-02-22T11:46:47;3.90;;;3.25;;
10461;SDS011;5278;42.656;23.374;2023-02-22T11:49:14;5.65;;;3.80;;
10461;SDS011;5278;42.656;23.374;2023-02-22T11:51:49;4.82;;;3.40;;
10461;SDS011;5278;42.656;23.374;2023-02-22T11:54:32;4.43;;;3.40;;
10461;SDS011;5278;42.656;23.374;2023-02-22T11:57:18;5.95;;;3.30;;
10461;SDS011;5278;42.656;23.374;2023-02-22T12:00:00;4.28;;;3.53;;
10461;SDS011;5278;42.656;23.374;2023-02-22T12:02:50;3.75;;;3.15;;
10461;SDS011;5278;42.656;23.374;2023-02-22T12:08:28;6.22;;;3.30;;
10461;SDS011;5278;42.656;23.374;2023-02-22T12:11:05;3.05;;;2.75;;
10461;SDS011;5278;42.656;23.374;2023-02-22T12:13:46;5.80;;;3.10;;
10461;SDS011;5278;42.656;23.374;2023-02-22T12:16:26;3.37;;;2.70;;
10461;SDS011;5278;42.656;23.374;2023-02-22T12:19:06;3.83;;;2.70;;
10461;SDS011;5278;42.656;23.374;2023-02-22T12:21:39;6.80;;;5.97;;
10461;SDS011;5278;42.656;23.374;2023-02-22T12:24:11;4.00;;;3.60;;
10461;SDS011;5278;42.656;23.374;2023-02-22T12:26:44;4.63;;;4.23;;
10461;SDS011;5278;42.656;23.374;2023-02-22T12:29:17;3.57;;;2.80;;
10461;SDS011;5278;42.656;23.374;2023-02-22T12:31:53;3.23;;;2.63;;
10461;SDS011;5278;42.656;23.374;2023-02-22T12:34:28;3.20;;;2.90;;
10461;SDS011;5278;42.656;23.374;2023-02-22T12:37:04;3.37;;;3.03;;
10461;SDS011;5278;42.656;23.374;2023-02-22T12:39:39;4.43;;;2.97;;
10461;SDS011;5278;42.656;23.374;2023-02-22T12:42:17;6.07;;;2.97;;
10461;SDS011;5278;42.656;23.374;2023-02-22T12:44:51;3.47;;;2.77;;
10461;SDS011;5278;42.656;23.374;2023-02-22T12:47:22;4.47;;;2.93;;
10461;SDS011;5278;42.656;23.374;2023-02-22T12:49:58;3.90;;;3.17;;
10461;SDS011;5278;42.656;23.374;2023-02-22T12:52:33;2.60;;;2.40;;
10461;SDS011;5278;42.656;23.374;2023-02-22T12:55:10;2.47;;;2.27;;
10461;SDS011;5278;42.656;23.374;2023-02-22T12:57:45;7.10;;;4.00;;
10461;SDS011;5278;42.656;23.374;2023-02-22T13:00:18;5.07;;;2.87;;
10461;SDS011;5278;42.656;23.374;2023-02-22T13:03:03;5.70;;;2.90;;
10461;SDS011;5278;42.656;23.374;2023-02-22T13:05:43;3.57;;;2.87;;
10461;SDS011;5278;42.656;23.374;2023-02-22T13:08:17;3.57;;;2.73;;
10461;SDS011;5278;42.656;23.374;2023-02-22T13:10:54;3.57;;;2.97;;
10461;SDS011;5278;42.656;23.374;2023-02-22T13:13:31;3.23;;;2.90;;
10461;SDS011;5278;42.656;23.374;2023-02-22T13:16:05;3.20;;;2.90;;
10461;SDS011;5278;42.656;23.374;2023-02-22T13:18:47;3.47;;;2.47;;
10461;SDS011;5278;42.656;23.374;2023-02-22T13:21:21;4.00;;;2.70;;
10461;SDS011;5278;42.656;23.374;2023-02-22T13:23:55;4.20;;;3.50;;
10461;SDS011;5278;42.656;23.374;2023-02-22T13:26:30;3.27;;;2.80;;
10461;SDS011;5278;42.656;23.374;2023-02-22T13:29:07;5.37;;;3.13;;
10461;SDS011;5278;42.656;23.374;2023-02-22T13:31:45;4.53;;;2.27;;
10461;SDS011;5278;42.656;23.374;2023-02-22T13:34:35;3.30;;;2.93;;
10461;SDS011;5278;42.656;23.374;2023-02-22T13:37:22;3.07;;;2.50;;
10461;SDS011;5278;42.656;23.374;2023-02-22T13:40:14;3.17;;;2.77;;
10461;SDS011;5278;42.656;23.374;2023-02-22T13:43:00;5.37;;;3.00;;
10461;SDS011;5278;42.656;23.374;2023-02-22T13:45:49;3.77;;;2.70;;
10461;SDS011;5278;42.656;23.374;2023-02-22T13:51:29;4.40;;;2.87;;
10461;SDS011;5278;42.656;23.374;2023-02-22T13:54:05;4.93;;;3.03;;
10461;SDS011;5278;42.656;23.374;2023-02-22T13:56:34;4.00;;;2.97;;
10461;SDS011;5278;42.656;23.374;2023-02-22T13:59:02;5.53;;;4.57;;
10461;SDS011;5278;42.656;23.374;2023-02-22T14:01:41;10.20;;;6.77;;
10461;SDS011;5278;42.656;23.374;2023-02-22T14:10:01;3.53;;;3.23;;
10461;SDS011;5278;42.656;23.374;2023-02-22T14:12:46;3.33;;;3.03;;
10461;SDS011;5278;42.656;23.374;2023-02-22T14:15:14;5.23;;;3.87;;
10461;SDS011;5278;42.656;23.374;2023-02-22T14:17:47;4.63;;;3.00;;
10461;SDS011;5278;42.656;23.374;2023-02-22T14:20:24;3.70;;;2.73;;
10461;SDS011;5278;42.656;23.374;2023-02-22T14:25:55;4.30;;;2.77;;
10461;SDS011;5278;42.656;23.374;2023-02-22T14:28:37;4.77;;;3.23;;
10461;SDS011;5278;42.656;23.374;2023-02-22T14:31:10;5.40;;;2.97;;
10461;SDS011;5278;42.656;23.374;2023-02-22T14:33:50;5.77;;;3.10;;
10461;SDS011;5278;42.656;23.374;2023-02-22T14:36:19;8.80;;;3.60;;
10461;SDS011;5278;42.656;23.374;2023-02-22T14:38:49;5.53;;;3.37;;
10461;SDS011;5278;42.656;23.374;2023-02-22T14:41:20;3.37;;;2.93;;
10461;SDS011;5278;42.656;23.374;2023-02-22T14:43:51;4.50;;;3.70;;
10461;SDS011;5278;42.656;23.374;2023-02-22T14:46:22;3.93;;;3.33;;
10461;SDS011;5278;42.656;23.374;2023-02-22T14:48:55;7.70;;;3.73;;
10461;SDS011;5278;42.656;23.374;2023-02-22T14:51:26;4.53;;;3.10;;
10461;SDS011;5278;42.656;23.374;2023-02-22T14:53:58;4.43;;;3.00;;
10461;SDS011;5278;42.656;23.374;2023-02-22T14:56:32;3.60;;;3.27;;
10461;SDS011;5278;42.656;23.374;2023-02-22T14:59:12;4.37;;;3.50;;
10461;SDS011;5278;42.656;23.374;2023-02-22T15:01:42;4.10;;;3.20;;
10461;SDS011;5278;42.656;23.374;2023-02-22T15:04:20;3.73;;;2.93;;
10461;SDS011;5278;42.656;23.374;2023-02-22T15:06:52;3.57;;;2.90;;
10461;SDS011;5278;42.656;23.374;2023-02-22T15:09:21;3.50;;;2.80;;
10461;SDS011;5278;42.656;23.374;2023-02-22T15:11:50;3.53;;;3.13;;
10461;SDS011;5278;42.656;23.374;2023-02-22T15:14:19;8.07;;;3.47;;
10461;SDS011;5278;42.656;23.374;2023-02-22T15:16:50;2.57;;;2.33;;
10461;SDS011;5278;42.656;23.374;2023-02-22T15:19:23;4.73;;;3.30;;
10461;SDS011;5278;42.656;23.374;2023-02-22T15:21:54;3.37;;;3.07;;
10461;SDS011;5278;42.656;23.374;2023-02-22T15:24:23;4.70;;;2.83;;
10461;SDS011;5278;42.656;23.374;2023-02-22T15:26:52;5.63;;;3.97;;
10461;SDS011;5278;42.656;23.374;2023-02-22T15:29:20;5.33;;;3.20;;
10461;SDS011;5278;42.656;23.374;2023-02-22T15:31:49;3.83;;;3.43;;